Francis C. Settoon — WDD4746 — position and weather

sailwx.info

Track history (hours):
 
Tides and Currents Weather Stations Pressure Air Temp Water Temp Dewpoint Dewpoint Depression Visibility Wind Speed Wind Dir Waves Ship Positions

Francis C. Settoon

Owner: Settoon Towing, LLC, Gibson, LA. More information available from US FCC via Universal Licensing System and Coast Guard Vessel Documentation Center.

Last reported at 2017-Nov-17 19:21 UTC. Time now 2017-Nov-21 13:37 UTC.
Position N 30°04' W 093°39'.

Length 16 m; draft 6 m.

Type: Ship (hazmat cat B). MMSI: 367003790.

Date/timePositionNaut miles runAvg speedWind from/ knotsBaromVisibWave heightAir tempDewpointWater temp
2017-Nov-17 19:21N 30°04' W 093°39'3 7.5
2017-Nov-17 19:00N 30°04' W 093°36'3 7.0
2017-Nov-17 18:30N 30°04' W 093°32'3 6.8
2017-Nov-17 18:00N 30°04' W 093°28'3 6.9
2017-Nov-17 17:30N 30°04' W 093°24'3 5.9
2017-Nov-17 17:00N 30°04' W 093°21'3 6.0
2017-Nov-17 16:30N 30°06' W 093°19'1 1.7
2017-Nov-17 16:00N 30°06' W 093°20'2 4.9
2017-Nov-17 15:30N 30°08' W 093°19'0 0.0
2017-Nov-17 15:00N 30°08' W 093°19'0 0.0
2017-Nov-17 14:30N 30°08' W 093°19'0 0.0
2017-Nov-17 14:00N 30°08' W 093°19'0 0.0
2017-Nov-17 13:30N 30°08' W 093°19'0 0.0
2017-Nov-17 13:00N 30°08' W 093°19'0 0.0
2017-Nov-17 12:30N 30°08' W 093°19'0 0.0
2017-Nov-17 12:00N 30°08' W 093°19'0 0.0
2017-Nov-17 11:30N 30°08' W 093°19'0 0.0
2017-Nov-17 11:00N 30°08' W 093°19'0 0.6
2017-Nov-17 10:30N 30°08' W 093°20'0 0.3
2017-Nov-17 10:00N 30°08' W 093°19'0 0.0
2017-Nov-17 09:30N 30°08' W 093°19'0 0.0
2017-Nov-17 09:00N 30°08' W 093°19'0 0.0
2017-Nov-17 08:30N 30°08' W 093°19'0 0.0
2017-Nov-17 08:00N 30°08' W 093°19'0 0.0
2017-Nov-17 07:30N 30°08' W 093°19'0 0.0
2017-Nov-17 07:00N 30°08' W 093°19'0 0.0
2017-Nov-17 06:30N 30°08' W 093°19'0 0.0
2017-Nov-17 06:00N 30°08' W 093°19'0 0.0
2017-Nov-17 05:30N 30°08' W 093°19'0 0.0
2017-Nov-17 05:00N 30°08' W 093°19'0 0.0
2017-Nov-17 04:30N 30°08' W 093°19'0 0.0
2017-Nov-17 04:00N 30°08' W 093°19'1 1.2
2017-Nov-17 03:30N 30°08' W 093°20'2 4.0
2017-Nov-17 03:00N 30°06' W 093°18'1 2.7
2017-Nov-17 02:30N 30°05' W 093°17'1 1.4
2017-Nov-17 02:00N 30°05' W 093°17'0 0.7
2017-Nov-17 01:30N 30°04' W 093°16'3 5.7
2017-Nov-17 01:00N 30°02' W 093°15'3 5.5
2017-Nov-17 00:30N 29°60' W 093°13'3 5.9
2017-Nov-17 00:00N 29°57' W 093°11'  
2017-Nov-14 19:02N 29°56' W 093°05'4 0.9
2017-Nov-14 14:24N 29°56' W 093°09'3 6.6
2017-Nov-14 13:59N 29°58' W 093°11'3 6.7
2017-Nov-14 13:31N 30°01' W 093°14'2 4.7
2017-Nov-14 13:00N 30°02' W 093°16'3 6.3
2017-Nov-14 12:30N 30°05' W 093°17'1 1.3
2017-Nov-14 11:43N 30°06' W 093°18'0 0.0
2017-Nov-14 11:25N 30°06' W 093°18'0 0.0
2017-Nov-14 10:59N 30°06' W 093°18'0 0.2
2017-Nov-14 10:29N 30°06' W 093°18'2 0.3
2017-Nov-14 01:42N 30°08' W 093°19'0 0.0
2017-Nov-14 01:29N 30°08' W 093°19'0 0.0
2017-Nov-14 00:59N 30°08' W 093°19'0 0.4
2017-Nov-14 00:29N 30°08' W 093°20'6 3.2
2017-Nov-13 22:47N 30°04' W 093°23'2 5.8
2017-Nov-13 22:29N 30°04' W 093°25'3 5.9
2017-Nov-13 21:59N 30°04' W 093°29'9 0.4
2017-Nov-13 01:03N 30°08' W 093°19'0 0.0
2017-Nov-13 00:59N 30°08' W 093°19'0 0.0
2017-Nov-13 00:29N 30°08' W 093°19'1 2.1
2017-Nov-12 23:59N 30°07' W 093°20'1 3.0
2017-Nov-12 23:29N 30°06' W 093°19'1 0.6
2017-Nov-12 22:19N 30°07' W 093°18'0 0.0
2017-Nov-12 21:59N 30°07' W 093°18'0 0.0
2017-Nov-12 20:41N 30°07' W 093°18'0 0.0
2017-Nov-12 20:29N 30°07' W 093°18'0 0.0
2017-Nov-12 19:25N 30°07' W 093°18'0 0.0
2017-Nov-12 17:38N 30°07' W 093°18'0 0.0
2017-Nov-12 17:21N 30°07' W 093°18'0 0.0
2017-Nov-12 16:59N 30°07' W 093°18'0 0.0
2017-Nov-12 16:30N 30°07' W 093°18'0 0.0
2017-Nov-12 13:37N 30°07' W 093°18'  
2017-Nov-09 10:36N 29°56' W 093°10'1 6.6
2017-Nov-09 10:30N 29°57' W 093°10'3 6.8
2017-Nov-09 10:00N 29°59' W 093°13'2 4.9
2017-Nov-09 09:30N 30°01' W 093°14'3 5.6
2017-Nov-09 09:00N 30°04' W 093°16'2 4.6
2017-Nov-09 08:30N 30°05' W 093°18'2 3.9
2017-Nov-09 08:00N 30°06' W 093°20'2 3.9
2017-Nov-09 07:30N 30°08' W 093°19'0 0.0
2017-Nov-09 07:00N 30°08' W 093°19'0 0.0
2017-Nov-09 06:30N 30°08' W 093°19'0 0.0
2017-Nov-09 06:00N 30°08' W 093°19'0 0.0
2017-Nov-09 05:30N 30°08' W 093°19'0 0.0
2017-Nov-09 05:00N 30°08' W 093°19'0 0.0
2017-Nov-09 04:30N 30°08' W 093°19'0 0.0
2017-Nov-09 04:00N 30°08' W 093°19'0 0.0
2017-Nov-09 03:30N 30°08' W 093°19'0 0.0
2017-Nov-09 03:00N 30°08' W 093°19'0 0.0
2017-Nov-09 02:30N 30°08' W 093°19'0 0.0
2017-Nov-09 02:00N 30°08' W 093°19'0 0.6
2017-Nov-09 01:30N 30°08' W 093°20'1 1.6
2017-Nov-09 01:00N 30°07' W 093°20'2 3.3
2017-Nov-09 00:30N 30°06' W 093°19'2 4.1
2017-Nov-09 00:00N 30°05' W 093°17'1 1.1
2017-Nov-08 23:30N 30°04' W 093°16'3 6.1
2017-Nov-08 23:00N 30°02' W 093°15'3 6.3
2017-Nov-08 22:30N 29°59' W 093°13'3 6.8
2017-Nov-08 22:00N 29°57' W 093°10'  
Track history (hours):
 
Tides and Currents Weather Stations Pressure Air Temp Water Temp Dewpoint Dewpoint Depression Visibility Wind Speed Wind Dir Waves Ship Positions

Francis C. Settoon

Owner: Settoon Towing, LLC, Gibson, LA. More information available from US FCC via Universal Licensing System and Coast Guard Vessel Documentation Center.

Last reported at 2017-Nov-17 19:21 UTC. Time now 2017-Nov-21 13:37 UTC.
Position N 30°04' W 093°39'.

Length 16 m; draft 6 m.

Type: Ship (hazmat cat B). MMSI: 367003790.

Date/timePositionNaut miles runAvg speedWind from/ knotsBaromVisibWave heightAir tempDewpointWater temp
2017-Nov-17 19:21N 30°04' W 093°39'3 7.5
2017-Nov-17 19:00N 30°04' W 093°36'3 7.0
2017-Nov-17 18:30N 30°04' W 093°32'3 6.8
2017-Nov-17 18:00N 30°04' W 093°28'3 6.9
2017-Nov-17 17:30N 30°04' W 093°24'3 5.9
2017-Nov-17 17:00N 30°04' W 093°21'3 6.0
2017-Nov-17 16:30N 30°06' W 093°19'1 1.7
2017-Nov-17 16:00N 30°06' W 093°20'2 4.9
2017-Nov-17 15:30N 30°08' W 093°19'0 0.0
2017-Nov-17 15:00N 30°08' W 093°19'0 0.0
2017-Nov-17 14:30N 30°08' W 093°19'0 0.0
2017-Nov-17 14:00N 30°08' W 093°19'0 0.0
2017-Nov-17 13:30N 30°08' W 093°19'0 0.0
2017-Nov-17 13:00N 30°08' W 093°19'0 0.0
2017-Nov-17 12:30N 30°08' W 093°19'0 0.0
2017-Nov-17 12:00N 30°08' W 093°19'0 0.0
2017-Nov-17 11:30N 30°08' W 093°19'0 0.0
2017-Nov-17 11:00N 30°08' W 093°19'0 0.6
2017-Nov-17 10:30N 30°08' W 093°20'0 0.3
2017-Nov-17 10:00N 30°08' W 093°19'0 0.0
2017-Nov-17 09:30N 30°08' W 093°19'0 0.0
2017-Nov-17 09:00N 30°08' W 093°19'0 0.0
2017-Nov-17 08:30N 30°08' W 093°19'0 0.0
2017-Nov-17 08:00N 30°08' W 093°19'0 0.0
2017-Nov-17 07:30N 30°08' W 093°19'0 0.0
2017-Nov-17 07:00N 30°08' W 093°19'0 0.0
2017-Nov-17 06:30N 30°08' W 093°19'0 0.0
2017-Nov-17 06:00N 30°08' W 093°19'0 0.0
2017-Nov-17 05:30N 30°08' W 093°19'0 0.0
2017-Nov-17 05:00N 30°08' W 093°19'0 0.0
2017-Nov-17 04:30N 30°08' W 093°19'0 0.0
2017-Nov-17 04:00N 30°08' W 093°19'1 1.2
2017-Nov-17 03:30N 30°08' W 093°20'2 4.0
2017-Nov-17 03:00N 30°06' W 093°18'1 2.7
2017-Nov-17 02:30N 30°05' W 093°17'1 1.4
2017-Nov-17 02:00N 30°05' W 093°17'0 0.7
2017-Nov-17 01:30N 30°04' W 093°16'3 5.7
2017-Nov-17 01:00N 30°02' W 093°15'3 5.5
2017-Nov-17 00:30N 29°60' W 093°13'3 5.9
2017-Nov-17 00:00N 29°57' W 093°11'  
2017-Nov-14 19:02N 29°56' W 093°05'4 0.9
2017-Nov-14 14:24N 29°56' W 093°09'3 6.6
2017-Nov-14 13:59N 29°58' W 093°11'3 6.7
2017-Nov-14 13:31N 30°01' W 093°14'2 4.7
2017-Nov-14 13:00N 30°02' W 093°16'3 6.3
2017-Nov-14 12:30N 30°05' W 093°17'1 1.3
2017-Nov-14 11:43N 30°06' W 093°18'0 0.0
2017-Nov-14 11:25N 30°06' W 093°18'0 0.0
2017-Nov-14 10:59N 30°06' W 093°18'0 0.2
2017-Nov-14 10:29N 30°06' W 093°18'2 0.3
2017-Nov-14 01:42N 30°08' W 093°19'0 0.0
2017-Nov-14 01:29N 30°08' W 093°19'0 0.0
2017-Nov-14 00:59N 30°08' W 093°19'0 0.4
2017-Nov-14 00:29N 30°08' W 093°20'6 3.2
2017-Nov-13 22:47N 30°04' W 093°23'2 5.8
2017-Nov-13 22:29N 30°04' W 093°25'3 5.9
2017-Nov-13 21:59N 30°04' W 093°29'9 0.4
2017-Nov-13 01:03N 30°08' W 093°19'0 0.0
2017-Nov-13 00:59N 30°08' W 093°19'0 0.0
2017-Nov-13 00:29N 30°08' W 093°19'1 2.1
2017-Nov-12 23:59N 30°07' W 093°20'1 3.0
2017-Nov-12 23:29N 30°06' W 093°19'1 0.6
2017-Nov-12 22:19N 30°07' W 093°18'0 0.0
2017-Nov-12 21:59N 30°07' W 093°18'0 0.0
2017-Nov-12 20:41N 30°07' W 093°18'0 0.0
2017-Nov-12 20:29N 30°07' W 093°18'0 0.0
2017-Nov-12 19:25N 30°07' W 093°18'0 0.0
2017-Nov-12 17:38N 30°07' W 093°18'0 0.0
2017-Nov-12 17:21N 30°07' W 093°18'0 0.0
2017-Nov-12 16:59N 30°07' W 093°18'0 0.0
2017-Nov-12 16:30N 30°07' W 093°18'0 0.0
2017-Nov-12 13:37N 30°07' W 093°18'  
2017-Nov-09 10:36N 29°56' W 093°10'1 6.6
2017-Nov-09 10:30N 29°57' W 093°10'3 6.8
2017-Nov-09 10:00N 29°59' W 093°13'2 4.9
2017-Nov-09 09:30N 30°01' W 093°14'3 5.6
2017-Nov-09 09:00N 30°04' W 093°16'2 4.6
2017-Nov-09 08:30N 30°05' W 093°18'2 3.9
2017-Nov-09 08:00N 30°06' W 093°20'2 3.9
2017-Nov-09 07:30N 30°08' W 093°19'0 0.0
2017-Nov-09 07:00N 30°08' W 093°19'0 0.0
2017-Nov-09 06:30N 30°08' W 093°19'0 0.0
2017-Nov-09 06:00N 30°08' W 093°19'0 0.0
2017-Nov-09 05:30N 30°08' W 093°19'0 0.0
2017-Nov-09 05:00N 30°08' W 093°19'0 0.0
2017-Nov-09 04:30N 30°08' W 093°19'0 0.0
2017-Nov-09 04:00N 30°08' W 093°19'0 0.0
2017-Nov-09 03:30N 30°08' W 093°19'0 0.0
2017-Nov-09 03:00N 30°08' W 093°19'0 0.0
2017-Nov-09 02:30N 30°08' W 093°19'0 0.0
2017-Nov-09 02:00N 30°08' W 093°19'0 0.6
2017-Nov-09 01:30N 30°08' W 093°20'1 1.6
2017-Nov-09 01:00N 30°07' W 093°20'2 3.3
2017-Nov-09 00:30N 30°06' W 093°19'2 4.1
2017-Nov-09 00:00N 30°05' W 093°17'1 1.1
2017-Nov-08 23:30N 30°04' W 093°16'3 6.1
2017-Nov-08 23:00N 30°02' W 093°15'3 6.3
2017-Nov-08 22:30N 29°59' W 093°13'3 6.8
2017-Nov-08 22:00N 29°57' W 093°10'  

Dump ship's entire track history